sensor_id;sensor_type;location;lat;lon;timestamp;P1;durP1;ratioP1;P2;durP2;ratioP2
4407;SDS011;2217;48.460;7.934;2022-09-27T00:01:21;2.00;;;0.90;;
4407;SDS011;2217;48.460;7.934;2022-09-27T00:03:48;2.00;;;0.90;;
4407;SDS011;2217;48.460;7.934;2022-09-27T00:06:19;2.00;;;0.90;;
4407;SDS011;2217;48.460;7.934;2022-09-27T00:08:48;2.00;;;0.90;;
4407;SDS011;2217;48.460;7.934;2022-09-27T00:11:16;2.00;;;0.90;;
4407;SDS011;2217;48.460;7.934;2022-09-27T00:13:47;2.00;;;0.90;;
4407;SDS011;2217;48.460;7.934;2022-09-27T00:16:14;2.03;;;0.90;;
4407;SDS011;2217;48.460;7.934;2022-09-27T00:18:41;2.00;;;0.90;;
4407;SDS011;2217;48.460;7.934;2022-09-27T00:21:09;2.00;;;0.90;;
4407;SDS011;2217;48.460;7.934;2022-09-27T00:23:37;2.00;;;1.00;;
4407;SDS011;2217;48.460;7.934;2022-09-27T00:26:04;2.00;;;0.90;;
4407;SDS011;2217;48.460;7.934;2022-09-27T00:28:32;2.00;;;0.80;;
4407;SDS011;2217;48.460;7.934;2022-09-27T00:31:01;2.00;;;0.90;;
4407;SDS011;2217;48.460;7.934;2022-09-27T00:33:28;2.00;;;0.90;;
4407;SDS011;2217;48.460;7.934;2022-09-27T00:36:01;2.00;;;0.90;;
4407;SDS011;2217;48.460;7.934;2022-09-27T00:38:29;2.00;;;0.90;;
4407;SDS011;2217;48.460;7.934;2022-09-27T00:40:57;2.00;;;0.90;;
4407;SDS011;2217;48.460;7.934;2022-09-27T00:43:24;2.00;;;0.90;;
4407;SDS011;2217;48.460;7.934;2022-09-27T00:45:51;2.00;;;0.90;;
4407;SDS011;2217;48.460;7.934;2022-09-27T00:48:21;2.00;;;0.80;;
4407;SDS011;2217;48.460;7.934;2022-09-27T00:50:52;2.00;;;0.80;;
4407;SDS011;2217;48.460;7.934;2022-09-27T00:53:21;2.00;;;0.80;;
4407;SDS011;2217;48.460;7.934;2022-09-27T00:55:51;2.00;;;1.00;;
4407;SDS011;2217;48.460;7.934;2022-09-27T00:58:20;2.00;;;0.90;;
4407;SDS011;2217;48.460;7.934;2022-09-27T01:00:50;2.00;;;0.90;;
4407;SDS011;2217;48.460;7.934;2022-09-27T01:03:21;2.00;;;0.90;;
4407;SDS011;2217;48.460;7.934;2022-09-27T01:05:50;2.00;;;0.83;;
4407;SDS011;2217;48.460;7.934;2022-09-27T01:08:18;2.00;;;0.90;;
4407;SDS011;2217;48.460;7.934;2022-09-27T01:10:46;2.00;;;0.90;;
4407;SDS011;2217;48.460;7.934;2022-09-27T01:13:18;2.00;;;0.90;;
4407;SDS011;2217;48.460;7.934;2022-09-27T01:15:47;2.00;;;0.90;;
4407;SDS011;2217;48.460;7.934;2022-09-27T01:18:20;2.00;;;0.90;;
4407;SDS011;2217;48.460;7.934;2022-09-27T01:26:27;2.00;;;0.90;;
4407;SDS011;2217;48.460;7.934;2022-09-27T01:28:59;2.00;;;0.90;;
4407;SDS011;2217;48.460;7.934;2022-09-27T01:31:31;2.00;;;0.90;;
4407;SDS011;2217;48.460;7.934;2022-09-27T01:34:01;2.00;;;0.90;;
4407;SDS011;2217;48.460;7.934;2022-09-27T01:36:32;2.00;;;0.90;;
4407;SDS011;2217;48.460;7.934;2022-09-27T01:39:07;2.00;;;0.97;;
4407;SDS011;2217;48.460;7.934;2022-09-27T01:41:35;2.00;;;0.90;;
4407;SDS011;2217;48.460;7.934;2022-09-27T01:44:05;2.00;;;0.93;;
4407;SDS011;2217;48.460;7.934;2022-09-27T01:46:36;1.93;;;0.90;;
4407;SDS011;2217;48.460;7.934;2022-09-27T01:49:07;2.00;;;0.90;;
4407;SDS011;2217;48.460;7.934;2022-09-27T01:51:37;1.90;;;0.90;;
4407;SDS011;2217;48.460;7.934;2022-09-27T01:54:05;1.90;;;0.90;;
4407;SDS011;2217;48.460;7.934;2022-09-27T01:56:34;1.90;;;0.80;;
4407;SDS011;2217;48.460;7.934;2022-09-27T01:59:04;1.90;;;0.90;;
4407;SDS011;2217;48.460;7.934;2022-09-27T02:01:31;2.00;;;0.90;;
4407;SDS011;2217;48.460;7.934;2022-09-27T02:04:01;1.90;;;0.87;;
4407;SDS011;2217;48.460;7.934;2022-09-27T02:06:30;1.93;;;0.90;;
4407;SDS011;2217;48.460;7.934;2022-09-27T02:09:01;1.90;;;0.80;;
4407;SDS011;2217;48.460;7.934;2022-09-27T02:11:29;2.00;;;0.90;;
4407;SDS011;2217;48.460;7.934;2022-09-27T02:13:57;1.97;;;0.90;;
4407;SDS011;2217;48.460;7.934;2022-09-27T02:16:27;2.00;;;0.90;;
4407;SDS011;2217;48.460;7.934;2022-09-27T02:18:57;1.97;;;0.87;;
4407;SDS011;2217;48.460;7.934;2022-09-27T02:21:31;2.00;;;0.90;;
4407;SDS011;2217;48.460;7.934;2022-09-27T02:24:01;1.97;;;0.87;;
4407;SDS011;2217;48.460;7.934;2022-09-27T02:26:31;1.97;;;0.80;;
4407;SDS011;2217;48.460;7.934;2022-09-27T02:28:59;1.93;;;0.90;;
4407;SDS011;2217;48.460;7.934;2022-09-27T02:31:29;2.00;;;0.90;;
4407;SDS011;2217;48.460;7.934;2022-09-27T02:52:08;1.90;;;0.90;;
4407;SDS011;2217;48.460;7.934;2022-09-27T02:54:39;1.97;;;0.90;;
4407;SDS011;2217;48.460;7.934;2022-09-27T02:57:12;1.90;;;0.90;;
4407;SDS011;2217;48.460;7.934;2022-09-27T02:59:46;1.90;;;0.80;;
4407;SDS011;2217;48.460;7.934;2022-09-27T03:02:17;2.00;;;1.00;;
4407;SDS011;2217;48.460;7.934;2022-09-27T03:04:48;1.90;;;0.90;;
4407;SDS011;2217;48.460;7.934;2022-09-27T03:07:21;1.90;;;0.90;;
4407;SDS011;2217;48.460;7.934;2022-09-27T03:09:49;1.90;;;0.90;;
4407;SDS011;2217;48.460;7.934;2022-09-27T03:12:17;1.90;;;0.90;;
4407;SDS011;2217;48.460;7.934;2022-09-27T03:14:49;1.90;;;0.80;;
4407;SDS011;2217;48.460;7.934;2022-09-27T03:17:17;1.90;;;0.80;;
4407;SDS011;2217;48.460;7.934;2022-09-27T03:19:44;2.00;;;1.00;;
4407;SDS011;2217;48.460;7.934;2022-09-27T03:22:11;1.90;;;0.90;;
4407;SDS011;2217;48.460;7.934;2022-09-27T03:24:40;1.90;;;0.90;;
4407;SDS011;2217;48.460;7.934;2022-09-27T03:27:07;1.90;;;0.80;;
4407;SDS011;2217;48.460;7.934;2022-09-27T03:29:35;2.00;;;0.90;;
4407;SDS011;2217;48.460;7.934;2022-09-27T03:32:02;1.90;;;0.80;;
4407;SDS011;2217;48.460;7.934;2022-09-27T03:34:29;1.90;;;0.90;;
4407;SDS011;2217;48.460;7.934;2022-09-27T03:36:56;1.97;;;0.90;;
4407;SDS011;2217;48.460;7.934;2022-09-27T03:39:24;2.00;;;0.90;;
4407;SDS011;2217;48.460;7.934;2022-09-27T03:41:52;1.97;;;0.90;;
4407;SDS011;2217;48.460;7.934;2022-09-27T03:44:19;1.97;;;0.90;;
4407;SDS011;2217;48.460;7.934;2022-09-27T03:46:47;2.00;;;0.90;;
4407;SDS011;2217;48.460;7.934;2022-09-27T03:49:14;2.00;;;0.90;;
4407;SDS011;2217;48.460;7.934;2022-09-27T03:51:41;2.00;;;0.90;;
4407;SDS011;2217;48.460;7.934;2022-09-27T03:54:08;2.00;;;0.90;;
4407;SDS011;2217;48.460;7.934;2022-09-27T03:56:36;1.97;;;0.90;;
4407;SDS011;2217;48.460;7.934;2022-09-27T03:59:04;1.90;;;0.90;;
4407;SDS011;2217;48.460;7.934;2022-09-27T04:01:32;1.93;;;0.90;;
4407;SDS011;2217;48.460;7.934;2022-09-27T04:04:01;1.90;;;0.90;;
4407;SDS011;2217;48.460;7.934;2022-09-27T04:06:29;1.90;;;0.90;;
4407;SDS011;2217;48.460;7.934;2022-09-27T04:08:56;1.90;;;0.90;;
4407;SDS011;2217;48.460;7.934;2022-09-27T04:11:23;1.90;;;0.90;;
4407;SDS011;2217;48.460;7.934;2022-09-27T04:13:50;1.90;;;0.90;;
4407;SDS011;2217;48.460;7.934;2022-09-27T04:16:19;2.00;;;0.90;;
4407;SDS011;2217;48.460;7.934;2022-09-27T04:18:48;2.00;;;1.00;;
4407;SDS011;2217;48.460;7.934;2022-09-27T04:21:15;2.00;;;0.90;;
4407;SDS011;2217;48.460;7.934;2022-09-27T04:23:44;1.90;;;0.80;;
4407;SDS011;2217;48.460;7.934;2022-09-27T04:26:11;1.90;;;0.90;;
4407;SDS011;2217;48.460;7.934;2022-09-27T04:28:39;2.00;;;0.90;;
4407;SDS011;2217;48.460;7.934;2022-09-27T04:31:06;1.90;;;0.90;;
4407;SDS011;2217;48.460;7.934;2022-09-27T04:33:34;1.97;;;0.90;;
4407;SDS011;2217;48.460;7.934;2022-09-27T04:36:02;1.90;;;0.90;;
4407;SDS011;2217;48.460;7.934;2022-09-27T04:38:47;1.97;;;0.90;;
4407;SDS011;2217;48.460;7.934;2022-09-27T04:41:14;1.90;;;0.90;;
4407;SDS011;2217;48.460;7.934;2022-09-27T04:43:41;1.93;;;0.90;;
4407;SDS011;2217;48.460;7.934;2022-09-27T04:46:08;2.00;;;0.97;;
4407;SDS011;2217;48.460;7.934;2022-09-27T04:48:37;2.00;;;1.00;;
4407;SDS011;2217;48.460;7.934;2022-09-27T04:51:04;2.00;;;1.00;;
4407;SDS011;2217;48.460;7.934;2022-09-27T04:53:32;2.00;;;0.90;;
4407;SDS011;2217;48.460;7.934;2022-09-27T04:55:59;2.00;;;0.90;;
4407;SDS011;2217;48.460;7.934;2022-09-27T04:58:31;1.90;;;0.90;;
4407;SDS011;2217;48.460;7.934;2022-09-27T05:00:59;2.00;;;0.90;;
4407;SDS011;2217;48.460;7.934;2022-09-27T05:03:27;1.90;;;0.90;;
4407;SDS011;2217;48.460;7.934;2022-09-27T05:05:56;2.00;;;1.00;;
4407;SDS011;2217;48.460;7.934;2022-09-27T05:08:23;2.00;;;0.90;;
4407;SDS011;2217;48.460;7.934;2022-09-27T05:10:51;2.00;;;0.90;;
4407;SDS011;2217;48.460;7.934;2022-09-27T05:13:18;2.00;;;0.90;;
4407;SDS011;2217;48.460;7.934;2022-09-27T05:15:45;2.00;;;0.90;;
4407;SDS011;2217;48.460;7.934;2022-09-27T05:18:12;2.00;;;0.90;;
4407;SDS011;2217;48.460;7.934;2022-09-27T05:20:40;1.90;;;0.90;;
4407;SDS011;2217;48.460;7.934;2022-09-27T05:23:09;1.93;;;0.90;;
4407;SDS011;2217;48.460;7.934;2022-09-27T05:25:36;1.90;;;0.90;;
4407;SDS011;2217;48.460;7.934;2022-09-27T05:28:04;2.00;;;0.90;;
4407;SDS011;2217;48.460;7.934;2022-09-27T05:30:32;2.00;;;1.00;;
4407;SDS011;2217;48.460;7.934;2022-09-27T05:33:00;1.90;;;0.90;;
4407;SDS011;2217;48.460;7.934;2022-09-27T05:35:27;1.90;;;0.90;;
4407;SDS011;2217;48.460;7.934;2022-09-27T05:37:55;1.90;;;0.90;;
4407;SDS011;2217;48.460;7.934;2022-09-27T05:40:24;2.00;;;1.00;;
4407;SDS011;2217;48.460;7.934;2022-09-27T05:42:51;1.90;;;0.90;;
4407;SDS011;2217;48.460;7.934;2022-09-27T05:45:19;1.90;;;0.90;;
4407;SDS011;2217;48.460;7.934;2022-09-27T05:47:53;1.97;;;0.90;;
4407;SDS011;2217;48.460;7.934;2022-09-27T05:50:20;1.90;;;0.90;;
4407;SDS011;2217;48.460;7.934;2022-09-27T05:52:47;1.90;;;0.90;;
4407;SDS011;2217;48.460;7.934;2022-09-27T05:55:14;1.93;;;0.90;;
4407;SDS011;2217;48.460;7.934;2022-09-27T05:57:43;1.90;;;0.90;;
4407;SDS011;2217;48.460;7.934;2022-09-27T06:00:19;1.90;;;0.80;;
4407;SDS011;2217;48.460;7.934;2022-09-27T06:02:51;1.90;;;0.90;;
4407;SDS011;2217;48.460;7.934;2022-09-27T06:05:19;1.90;;;0.90;;
4407;SDS011;2217;48.460;7.934;2022-09-27T06:07:46;1.90;;;0.90;;
4407;SDS011;2217;48.460;7.934;2022-09-27T06:10:15;1.90;;;0.90;;
4407;SDS011;2217;48.460;7.934;2022-09-27T06:12:43;1.90;;;0.90;;
4407;SDS011;2217;48.460;7.934;2022-09-27T06:15:10;1.90;;;0.90;;
4407;SDS011;2217;48.460;7.934;2022-09-27T06:17:38;1.90;;;0.90;;
4407;SDS011;2217;48.460;7.934;2022-09-27T06:20:07;1.93;;;0.90;;
4407;SDS011;2217;48.460;7.934;2022-09-27T06:22:39;1.90;;;0.80;;
4407;SDS011;2217;48.460;7.934;2022-09-27T06:25:06;1.90;;;0.90;;
4407;SDS011;2217;48.460;7.934;2022-09-27T06:27:34;1.90;;;0.90;;
4407;SDS011;2217;48.460;7.934;2022-09-27T06:30:03;1.90;;;0.90;;
4407;SDS011;2217;48.460;7.934;2022-09-27T06:32:30;1.90;;;0.80;;
4407;SDS011;2217;48.460;7.934;2022-09-27T06:34:57;1.90;;;0.90;;
4407;SDS011;2217;48.460;7.934;2022-09-27T06:37:25;1.90;;;0.90;;
4407;SDS011;2217;48.460;7.934;2022-09-27T06:39:52;1.90;;;0.90;;
4407;SDS011;2217;48.460;7.934;2022-09-27T06:42:20;1.90;;;0.90;;
4407;SDS011;2217;48.460;7.934;2022-09-27T06:44:47;1.90;;;0.80;;
4407;SDS011;2217;48.460;7.934;2022-09-27T06:47:16;1.90;;;0.90;;
4407;SDS011;2217;48.460;7.934;2022-09-27T06:49:43;1.90;;;0.90;;
4407;SDS011;2217;48.460;7.934;2022-09-27T06:52:14;1.90;;;0.80;;
4407;SDS011;2217;48.460;7.934;2022-09-27T06:54:56;1.90;;;0.90;;
4407;SDS011;2217;48.460;7.934;2022-09-27T06:57:23;1.90;;;0.90;;
4407;SDS011;2217;48.460;7.934;2022-09-27T07:00:04;1.90;;;0.80;;
4407;SDS011;2217;48.460;7.934;2022-09-27T07:02:55;1.90;;;0.90;;
4407;SDS011;2217;48.460;7.934;2022-09-27T07:05:25;1.90;;;0.80;;
4407;SDS011;2217;48.460;7.934;2022-09-27T07:07:52;1.90;;;0.90;;
4407;SDS011;2217;48.460;7.934;2022-09-27T07:10:22;1.90;;;0.90;;
4407;SDS011;2217;48.460;7.934;2022-09-27T07:12:49;1.90;;;0.90;;
4407;SDS011;2217;48.460;7.934;2022-09-27T07:15:18;1.90;;;0.80;;
4407;SDS011;2217;48.460;7.934;2022-09-27T07:17:46;1.90;;;1.00;;
4407;SDS011;2217;48.460;7.934;2022-09-27T07:20:15;1.90;;;0.80;;
4407;SDS011;2217;48.460;7.934;2022-09-27T07:22:42;1.90;;;0.90;;
4407;SDS011;2217;48.460;7.934;2022-09-27T07:25:10;1.90;;;0.90;;
4407;SDS011;2217;48.460;7.934;2022-09-27T07:27:37;1.90;;;0.90;;
4407;SDS011;2217;48.460;7.934;2022-09-27T07:30:06;1.90;;;0.90;;
4407;SDS011;2217;48.460;7.934;2022-09-27T07:32:34;1.90;;;0.90;;
4407;SDS011;2217;48.460;7.934;2022-09-27T07:35:01;1.90;;;0.90;;
4407;SDS011;2217;48.460;7.934;2022-09-27T07:37:31;1.90;;;0.80;;
4407;SDS011;2217;48.460;7.934;2022-09-27T07:39:59;1.90;;;0.90;;
4407;SDS011;2217;48.460;7.934;2022-09-27T07:42:26;1.90;;;0.90;;
4407;SDS011;2217;48.460;7.934;2022-09-27T07:44:53;1.90;;;0.80;;
4407;SDS011;2217;48.460;7.934;2022-09-27T07:47:21;1.90;;;0.90;;
4407;SDS011;2217;48.460;7.934;2022-09-27T07:49:49;1.90;;;0.90;;
4407;SDS011;2217;48.460;7.934;2022-09-27T07:52:16;1.90;;;0.90;;
4407;SDS011;2217;48.460;7.934;2022-09-27T07:54:45;2.00;;;0.90;;
4407;SDS011;2217;48.460;7.934;2022-09-27T07:57:13;2.00;;;0.80;;
4407;SDS011;2217;48.460;7.934;2022-09-27T07:59:40;2.00;;;0.90;;
4407;SDS011;2217;48.460;7.934;2022-09-27T08:02:08;2.00;;;0.80;;
4407;SDS011;2217;48.460;7.934;2022-09-27T08:04:36;2.00;;;0.90;;
4407;SDS011;2217;48.460;7.934;2022-09-27T08:07:04;2.00;;;0.80;;
4407;SDS011;2217;48.460;7.934;2022-09-27T08:09:31;2.00;;;1.00;;
4407;SDS011;2217;48.460;7.934;2022-09-27T08:12:00;2.00;;;0.90;;
4407;SDS011;2217;48.460;7.934;2022-09-27T08:14:27;2.00;;;0.90;;
4407;SDS011;2217;48.460;7.934;2022-09-27T08:16:54;2.00;;;0.90;;
4407;SDS011;2217;48.460;7.934;2022-09-27T08:19:22;2.00;;;0.90;;
4407;SDS011;2217;48.460;7.934;2022-09-27T08:21:50;2.07;;;1.00;;
4407;SDS011;2217;48.460;7.934;2022-09-27T08:24:18;2.00;;;0.80;;
4407;SDS011;2217;48.460;7.934;2022-09-27T08:26:46;2.03;;;0.80;;
4407;SDS011;2217;48.460;7.934;2022-09-27T08:29:14;2.00;;;0.90;;
4407;SDS011;2217;48.460;7.934;2022-09-27T08:31:41;2.10;;;0.90;;
4407;SDS011;2217;48.460;7.934;2022-09-27T08:34:09;2.10;;;0.90;;
4407;SDS011;2217;48.460;7.934;2022-09-27T08:36:36;2.07;;;0.80;;
4407;SDS011;2217;48.460;7.934;2022-09-27T08:39:03;2.10;;;0.90;;
4407;SDS011;2217;48.460;7.934;2022-09-27T08:41:33;2.10;;;0.90;;
4407;SDS011;2217;48.460;7.934;2022-09-27T08:44:08;2.10;;;0.90;;
4407;SDS011;2217;48.460;7.934;2022-09-27T08:46:40;2.10;;;0.80;;
4407;SDS011;2217;48.460;7.934;2022-09-27T08:49:11;2.10;;;0.80;;
4407;SDS011;2217;48.460;7.934;2022-09-27T08:51:40;2.10;;;0.80;;
4407;SDS011;2217;48.460;7.934;2022-09-27T08:54:10;2.10;;;0.80;;
4407;SDS011;2217;48.460;7.934;2022-09-27T08:56:38;2.10;;;0.90;;
4407;SDS011;2217;48.460;7.934;2022-09-27T08:59:09;2.10;;;0.80;;
4407;SDS011;2217;48.460;7.934;2022-09-27T09:01:40;2.10;;;0.90;;
4407;SDS011;2217;48.460;7.934;2022-09-27T09:04:07;2.10;;;0.90;;
4407;SDS011;2217;48.460;7.934;2022-09-27T09:06:36;2.10;;;0.90;;
4407;SDS011;2217;48.460;7.934;2022-09-27T09:09:10;2.10;;;0.90;;
4407;SDS011;2217;48.460;7.934;2022-09-27T09:11:42;2.10;;;0.90;;
4407;SDS011;2217;48.460;7.934;2022-09-27T09:14:36;2.10;;;0.90;;
4407;SDS011;2217;48.460;7.934;2022-09-27T09:17:11;2.10;;;0.90;;
4407;SDS011;2217;48.460;7.934;2022-09-27T09:19:44;2.10;;;0.80;;
4407;SDS011;2217;48.460;7.934;2022-09-27T09:22:18;2.10;;;0.90;;
4407;SDS011;2217;48.460;7.934;2022-09-27T09:24:50;2.13;;;0.90;;
4407;SDS011;2217;48.460;7.934;2022-09-27T09:27:20;2.10;;;0.90;;
4407;SDS011;2217;48.460;7.934;2022-09-27T09:29:56;2.10;;;0.80;;
4407;SDS011;2217;48.460;7.934;2022-09-27T09:32:29;2.10;;;0.80;;
4407;SDS011;2217;48.460;7.934;2022-09-27T09:34:59;2.20;;;0.80;;
4407;SDS011;2217;48.460;7.934;2022-09-27T09:37:31;2.20;;;0.80;;
4407;SDS011;2217;48.460;7.934;2022-09-27T09:40:02;2.20;;;0.90;;
4407;SDS011;2217;48.460;7.934;2022-09-27T09:42:33;2.20;;;0.80;;
4407;SDS011;2217;48.460;7.934;2022-09-27T09:45:01;2.20;;;0.80;;
4407;SDS011;2217;48.460;7.934;2022-09-27T09:47:32;2.20;;;0.80;;
4407;SDS011;2217;48.460;7.934;2022-09-27T09:50:02;2.20;;;0.90;;
4407;SDS011;2217;48.460;7.934;2022-09-27T09:52:34;2.30;;;0.80;;
4407;SDS011;2217;48.460;7.934;2022-09-27T09:55:05;2.30;;;0.90;;
4407;SDS011;2217;48.460;7.934;2022-09-27T09:57:34;2.30;;;0.90;;
4407;SDS011;2217;48.460;7.934;2022-09-27T10:00:05;2.30;;;0.80;;
4407;SDS011;2217;48.460;7.934;2022-09-27T10:02:35;2.30;;;0.90;;
4407;SDS011;2217;48.460;7.934;2022-09-27T10:05:03;2.30;;;0.80;;
4407;SDS011;2217;48.460;7.934;2022-09-27T10:07:32;2.30;;;1.00;;
4407;SDS011;2217;48.460;7.934;2022-09-27T10:10:00;2.20;;;0.80;;
4407;SDS011;2217;48.460;7.934;2022-09-27T10:12:28;2.30;;;0.87;;
4407;SDS011;2217;48.460;7.934;2022-09-27T10:14:56;2.30;;;1.00;;
4407;SDS011;2217;48.460;7.934;2022-09-27T10:17:25;2.27;;;1.00;;
4407;SDS011;2217;48.460;7.934;2022-09-27T10:19:56;2.20;;;0.90;;
4407;SDS011;2217;48.460;7.934;2022-09-27T10:22:25;2.20;;;0.90;;
4407;SDS011;2217;48.460;7.934;2022-09-27T10:24:55;2.20;;;0.90;;
4407;SDS011;2217;48.460;7.934;2022-09-27T10:27:23;2.20;;;0.90;;
4407;SDS011;2217;48.460;7.934;2022-09-27T10:29:57;2.20;;;0.90;;
4407;SDS011;2217;48.460;7.934;2022-09-27T10:32:26;2.20;;;0.90;;
4407;SDS011;2217;48.460;7.934;2022-09-27T10:34:56;2.20;;;0.83;;
4407;SDS011;2217;48.460;7.934;2022-09-27T10:37:48;2.20;;;0.90;;
4407;SDS011;2217;48.460;7.934;2022-09-27T10:40:23;2.20;;;0.90;;
4407;SDS011;2217;48.460;7.934;2022-09-27T10:42:51;2.20;;;0.90;;
4407;SDS011;2217;48.460;7.934;2022-09-27T10:45:25;2.20;;;0.90;;
4407;SDS011;2217;48.460;7.934;2022-09-27T10:47:53;2.20;;;0.90;;
4407;SDS011;2217;48.460;7.934;2022-09-27T10:50:23;2.20;;;0.90;;
4407;SDS011;2217;48.460;7.934;2022-09-27T10:53:02;2.23;;;0.97;;
4407;SDS011;2217;48.460;7.934;2022-09-27T10:55:31;2.20;;;0.90;;
4407;SDS011;2217;48.460;7.934;2022-09-27T10:57:58;2.20;;;0.90;;
4407;SDS011;2217;48.460;7.934;2022-09-27T11:00:27;2.20;;;0.90;;
4407;SDS011;2217;48.460;7.934;2022-09-27T11:02:56;2.20;;;0.80;;
4407;SDS011;2217;48.460;7.934;2022-09-27T11:05:30;2.20;;;0.90;;
4407;SDS011;2217;48.460;7.934;2022-09-27T11:07:59;2.20;;;0.90;;
4407;SDS011;2217;48.460;7.934;2022-09-27T11:10:28;2.20;;;0.90;;
4407;SDS011;2217;48.460;7.934;2022-09-27T11:13:10;2.20;;;0.90;;
4407;SDS011;2217;48.460;7.934;2022-09-27T11:15:41;2.20;;;0.90;;
4407;SDS011;2217;48.460;7.934;2022-09-27T11:18:11;2.20;;;0.90;;
4407;SDS011;2217;48.460;7.934;2022-09-27T11:20:43;2.20;;;1.00;;
4407;SDS011;2217;48.460;7.934;2022-09-27T11:23:17;2.20;;;0.90;;
4407;SDS011;2217;48.460;7.934;2022-09-27T11:25:54;2.17;;;0.80;;
4407;SDS011;2217;48.460;7.934;2022-09-27T11:28:27;2.20;;;0.90;;
4407;SDS011;2217;48.460;7.934;2022-09-27T11:30:57;2.20;;;0.90;;
4407;SDS011;2217;48.460;7.934;2022-09-27T11:33:35;2.20;;;0.90;;
4407;SDS011;2217;48.460;7.934;2022-09-27T11:36:10;2.20;;;0.90;;
4407;SDS011;2217;48.460;7.934;2022-09-27T11:38:41;2.20;;;0.90;;
4407;SDS011;2217;48.460;7.934;2022-09-27T11:41:22;2.17;;;0.80;;
4407;SDS011;2217;48.460;7.934;2022-09-27T11:44:00;2.20;;;0.90;;
4407;SDS011;2217;48.460;7.934;2022-09-27T11:46:30;2.10;;;0.80;;
4407;SDS011;2217;48.460;7.934;2022-09-27T11:49:06;2.20;;;0.90;;
4407;SDS011;2217;48.460;7.934;2022-09-27T11:51:45;2.10;;;0.80;;
4407;SDS011;2217;48.460;7.934;2022-09-27T11:54:21;2.20;;;0.90;;
4407;SDS011;2217;48.460;7.934;2022-09-27T11:56:53;2.20;;;0.90;;
4407;SDS011;2217;48.460;7.934;2022-09-27T11:59:34;2.20;;;0.87;;
4407;SDS011;2217;48.460;7.934;2022-09-27T12:02:05;2.13;;;0.90;;
4407;SDS011;2217;48.460;7.934;2022-09-27T12:04:50;2.20;;;0.90;;
4407;SDS011;2217;48.460;7.934;2022-09-27T12:07:20;2.10;;;0.90;;
4407;SDS011;2217;48.460;7.934;2022-09-27T12:09:52;2.10;;;0.80;;
4407;SDS011;2217;48.460;7.934;2022-09-27T12:12:19;2.10;;;0.80;;
4407;SDS011;2217;48.460;7.934;2022-09-27T12:14:48;2.10;;;0.80;;
4407;SDS011;2217;48.460;7.934;2022-09-27T12:17:17;2.10;;;0.90;;
4407;SDS011;2217;48.460;7.934;2022-09-27T12:19:46;2.10;;;0.90;;
4407;SDS011;2217;48.460;7.934;2022-09-27T12:22:17;2.20;;;0.90;;
4407;SDS011;2217;48.460;7.934;2022-09-27T12:24:47;2.20;;;0.90;;
4407;SDS011;2217;48.460;7.934;2022-09-27T12:27:18;2.17;;;0.90;;
4407;SDS011;2217;48.460;7.934;2022-09-27T12:29:47;2.10;;;0.90;;
4407;SDS011;2217;48.460;7.934;2022-09-27T12:32:15;2.10;;;0.80;;
4407;SDS011;2217;48.460;7.934;2022-09-27T12:34:44;2.20;;;0.90;;
4407;SDS011;2217;48.460;7.934;2022-09-27T12:37:14;2.17;;;0.90;;
4407;SDS011;2217;48.460;7.934;2022-09-27T12:39:46;2.20;;;0.90;;
4407;SDS011;2217;48.460;7.934;2022-09-27T12:42:16;2.20;;;0.83;;
4407;SDS011;2217;48.460;7.934;2022-09-27T12:44:45;2.20;;;0.80;;
4407;SDS011;2217;48.460;7.934;2022-09-27T12:47:15;2.20;;;1.00;;
4407;SDS011;2217;48.460;7.934;2022-09-27T12:49:45;2.20;;;0.90;;
4407;SDS011;2217;48.460;7.934;2022-09-27T12:52:15;2.20;;;0.90;;
4407;SDS011;2217;48.460;7.934;2022-09-27T12:54:54;2.20;;;0.90;;
4407;SDS011;2217;48.460;7.934;2022-09-27T12:57:31;2.20;;;0.90;;
4407;SDS011;2217;48.460;7.934;2022-09-27T13:00:04;2.20;;;0.90;;
4407;SDS011;2217;48.460;7.934;2022-09-27T13:05:25;2.20;;;0.90;;
4407;SDS011;2217;48.460;7.934;2022-09-27T13:08:09;2.23;;;0.90;;
4407;SDS011;2217;48.460;7.934;2022-09-27T13:10:44;2.30;;;0.90;;
4407;SDS011;2217;48.460;7.934;2022-09-27T13:13:14;2.30;;;0.80;;
4407;SDS011;2217;48.460;7.934;2022-09-27T13:15:42;2.30;;;0.80;;
4407;SDS011;2217;48.460;7.934;2022-09-27T13:20:52;2.30;;;0.90;;
4407;SDS011;2217;48.460;7.934;2022-09-27T13:26:19;2.30;;;0.80;;
4407;SDS011;2217;48.460;7.934;2022-09-27T13:28:58;2.30;;;0.90;;
4407;SDS011;2217;48.460;7.934;2022-09-27T13:34:12;2.30;;;0.90;;
4407;SDS011;2217;48.460;7.934;2022-09-27T13:37:04;2.27;;;1.00;;
4407;SDS011;2217;48.460;7.934;2022-09-27T13:39:47;2.20;;;0.90;;
4407;SDS011;2217;48.460;7.934;2022-09-27T13:45:07;2.20;;;0.90;;
4407;SDS011;2217;48.460;7.934;2022-09-27T13:47:42;2.20;;;0.80;;
4407;SDS011;2217;48.460;7.934;2022-09-27T13:50:16;2.20;;;0.90;;
4407;SDS011;2217;48.460;7.934;2022-09-27T13:52:45;2.20;;;0.90;;
4407;SDS011;2217;48.460;7.934;2022-09-27T13:55:37;2.20;;;0.90;;
4407;SDS011;2217;48.460;7.934;2022-09-27T13:58:10;2.20;;;0.90;;
4407;SDS011;2217;48.460;7.934;2022-09-27T14:00:40;2.20;;;0.90;;
4407;SDS011;2217;48.460;7.934;2022-09-27T14:03:13;2.20;;;0.90;;
4407;SDS011;2217;48.460;7.934;2022-09-27T14:06:19;2.20;;;0.90;;
4407;SDS011;2217;48.460;7.934;2022-09-27T14:08:47;2.20;;;0.90;;
4407;SDS011;2217;48.460;7.934;2022-09-27T14:11:15;2.20;;;1.00;;
4407;SDS011;2217;48.460;7.934;2022-09-27T14:13:45;2.10;;;0.90;;
4407;SDS011;2217;48.460;7.934;2022-09-27T14:16:15;2.10;;;0.80;;
4407;SDS011;2217;48.460;7.934;2022-09-27T14:18:44;2.10;;;0.80;;
4407;SDS011;2217;48.460;7.934;2022-09-27T14:21:16;2.20;;;0.80;;
4407;SDS011;2217;48.460;7.934;2022-09-27T14:23:44;2.20;;;0.90;;
4407;SDS011;2217;48.460;7.934;2022-09-27T14:26:18;2.20;;;0.80;;
4407;SDS011;2217;48.460;7.934;2022-09-27T14:28:48;2.23;;;0.80;;
4407;SDS011;2217;48.460;7.934;2022-09-27T14:31:17;2.27;;;0.90;;
4407;SDS011;2217;48.460;7.934;2022-09-27T14:33:44;2.30;;;0.80;;
4407;SDS011;2217;48.460;7.934;2022-09-27T14:36:16;2.30;;;0.80;;
4407;SDS011;2217;48.460;7.934;2022-09-27T14:39:10;2.30;;;0.90;;
4407;SDS011;2217;48.460;7.934;2022-09-27T14:41:38;2.30;;;0.90;;
4407;SDS011;2217;48.460;7.934;2022-09-27T14:44:09;2.30;;;0.90;;
4407;SDS011;2217;48.460;7.934;2022-09-27T14:46:39;2.30;;;0.80;;
4407;SDS011;2217;48.460;7.934;2022-09-27T14:49:18;2.27;;;0.90;;
4407;SDS011;2217;48.460;7.934;2022-09-27T14:51:51;2.23;;;0.80;;
4407;SDS011;2217;48.460;7.934;2022-09-27T14:54:19;2.20;;;0.80;;
4407;SDS011;2217;48.460;7.934;2022-09-27T14:56:47;2.20;;;0.90;;
4407;SDS011;2217;48.460;7.934;2022-09-27T14:59:16;2.20;;;0.90;;
4407;SDS011;2217;48.460;7.934;2022-09-27T15:01:48;2.20;;;0.90;;
4407;SDS011;2217;48.460;7.934;2022-09-27T15:04:16;2.20;;;0.80;;
4407;SDS011;2217;48.460;7.934;2022-09-27T15:06:44;2.20;;;0.90;;
4407;SDS011;2217;48.460;7.934;2022-09-27T15:09:12;2.20;;;0.90;;
4407;SDS011;2217;48.460;7.934;2022-09-27T15:11:40;2.20;;;0.90;;
4407;SDS011;2217;48.460;7.934;2022-09-27T15:14:09;2.20;;;0.90;;
4407;SDS011;2217;48.460;7.934;2022-09-27T15:16:39;2.20;;;0.90;;
4407;SDS011;2217;48.460;7.934;2022-09-27T15:19:13;2.20;;;1.00;;
4407;SDS011;2217;48.460;7.934;2022-09-27T15:21:41;2.20;;;0.80;;
4407;SDS011;2217;48.460;7.934;2022-09-27T15:26:50;2.20;;;0.90;;
4407;SDS011;2217;48.460;7.934;2022-09-27T15:29:17;2.20;;;0.90;;
4407;SDS011;2217;48.460;7.934;2022-09-27T15:31:45;2.20;;;0.80;;
4407;SDS011;2217;48.460;7.934;2022-09-27T15:34:16;2.20;;;1.00;;
4407;SDS011;2217;48.460;7.934;2022-09-27T15:36:52;2.20;;;0.90;;
4407;SDS011;2217;48.460;7.934;2022-09-27T15:39:25;2.20;;;0.90;;
4407;SDS011;2217;48.460;7.934;2022-09-27T15:41:59;2.20;;;0.90;;
4407;SDS011;2217;48.460;7.934;2022-09-27T15:44:37;2.20;;;0.90;;
4407;SDS011;2217;48.460;7.934;2022-09-27T15:47:04;2.20;;;0.90;;
4407;SDS011;2217;48.460;7.934;2022-09-27T15:49:33;2.20;;;0.90;;
4407;SDS011;2217;48.460;7.934;2022-09-27T15:52:00;2.20;;;0.90;;
4407;SDS011;2217;48.460;7.934;2022-09-27T15:54:29;2.20;;;0.90;;
4407;SDS011;2217;48.460;7.934;2022-09-27T15:57:00;2.20;;;0.90;;
4407;SDS011;2217;48.460;7.934;2022-09-27T15:59:29;2.20;;;0.90;;
4407;SDS011;2217;48.460;7.934;2022-09-27T16:01:57;2.20;;;0.90;;
4407;SDS011;2217;48.460;7.934;2022-09-27T16:04:25;2.20;;;0.90;;
4407;SDS011;2217;48.460;7.934;2022-09-27T16:06:56;2.20;;;0.90;;
4407;SDS011;2217;48.460;7.934;2022-09-27T16:09:24;2.20;;;1.00;;
4407;SDS011;2217;48.460;7.934;2022-09-27T16:11:52;2.20;;;0.90;;
4407;SDS011;2217;48.460;7.934;2022-09-27T16:14:19;2.20;;;0.90;;